createdAt,value
2023-05-09T00:01:34.339Z,15.40
2023-05-09T00:04:00.617Z,15.98
2023-05-09T00:06:26.838Z,15.25
2023-05-09T00:08:53.140Z,14.57
2023-05-09T00:11:19.409Z,15.35
2023-05-09T00:13:45.733Z,15.02
2023-05-09T00:16:12.022Z,14.55
2023-05-09T00:18:38.300Z,14.40
2023-05-09T00:21:04.551Z,14.35
2023-05-09T00:23:30.992Z,14.35
2023-05-09T00:25:57.218Z,13.48
2023-05-09T00:28:23.482Z,14.00
2023-05-09T00:30:49.718Z,13.20
2023-05-09T00:33:15.972Z,12.60
2023-05-09T00:35:42.489Z,13.25
2023-05-09T00:38:08.802Z,12.52
2023-05-09T00:40:35.176Z,12.90
2023-05-09T00:43:01.466Z,12.23
2023-05-09T00:45:27.735Z,11.45
2023-05-09T00:47:54.047Z,11.63
2023-05-09T00:50:20.386Z,11.98
2023-05-09T00:52:46.610Z,11.07
2023-05-09T00:55:13.003Z,11.65
2023-05-09T00:57:39.427Z,11.48
2023-05-09T01:00:05.668Z,11.98
2023-05-09T01:02:31.979Z,10.70
2023-05-09T01:04:58.358Z,10.30
2023-05-09T01:07:24.610Z,10.32
2023-05-09T01:09:50.895Z,10.75
2023-05-09T01:12:17.122Z,10.07
2023-05-09T01:14:43.375Z,9.70
2023-05-09T01:17:09.642Z,9.98
2023-05-09T01:19:35.897Z,10.52
2023-05-09T01:22:02.201Z,9.45
2023-05-09T01:24:28.432Z,8.75
2023-05-09T01:26:54.683Z,8.80
2023-05-09T01:29:21.018Z,9.65
2023-05-09T01:31:47.468Z,9.38
2023-05-09T01:34:13.891Z,9.07
2023-05-09T01:36:40.123Z,9.50
2023-05-09T01:39:06.445Z,8.82
2023-05-09T01:41:32.754Z,8.93
2023-05-09T01:43:58.996Z,8.88
2023-05-09T01:46:25.336Z,8.40
2023-05-09T01:48:51.609Z,8.52
2023-05-09T01:51:17.906Z,8.15
2023-05-09T01:53:44.148Z,8.25
2023-05-09T01:56:10.409Z,8.85
2023-05-09T01:58:36.648Z,8.23
2023-05-09T02:01:03.095Z,7.72
2023-05-09T02:03:29.620Z,8.65
2023-05-09T02:05:55.949Z,8.38
2023-05-09T02:08:22.325Z,8.25
2023-05-09T02:10:48.859Z,7.43
2023-05-09T02:13:15.225Z,7.97
2023-05-09T02:15:41.577Z,7.97
2023-05-09T02:18:07.844Z,7.53
2023-05-09T02:20:34.060Z,7.28
2023-05-09T02:23:00.328Z,7.10
2023-05-09T02:25:26.557Z,7.68
2023-05-09T02:27:52.786Z,7.35
2023-05-09T02:30:19.058Z,6.65
2023-05-09T02:32:45.371Z,7.60
2023-05-09T02:35:11.716Z,6.90
2023-05-09T02:37:37.983Z,7.65
2023-05-09T02:40:04.250Z,6.72
2023-05-09T02:42:30.557Z,6.80
2023-05-09T02:44:56.990Z,7.25
2023-05-09T02:47:23.301Z,6.70
2023-05-09T02:49:49.544Z,6.90
2023-05-09T02:52:15.818Z,6.32
2023-05-09T02:54:42.047Z,7.00
2023-05-09T02:57:08.367Z,6.13
2023-05-09T02:59:34.595Z,5.95
2023-05-09T03:02:00.890Z,6.22
2023-05-09T03:04:27.138Z,6.82
2023-05-09T03:06:53.463Z,6.35
2023-05-09T03:09:19.715Z,6.65
2023-05-09T03:11:45.957Z,5.63
2023-05-09T03:14:12.213Z,6.57
2023-05-09T03:16:38.472Z,6.43
2023-05-09T03:19:04.747Z,6.00
2023-05-09T03:21:31.124Z,6.22
2023-05-09T03:23:57.369Z,5.65
2023-05-09T03:26:23.580Z,5.97
2023-05-09T03:28:49.933Z,6.30
2023-05-09T03:31:16.357Z,6.10
2023-05-09T03:33:42.668Z,6.20
2023-05-09T03:36:09.008Z,6.03
2023-05-09T03:38:35.264Z,6.00
2023-05-09T03:41:01.565Z,5.43
2023-05-09T03:43:27.795Z,5.90
2023-05-09T03:45:54.050Z,5.80
2023-05-09T03:48:20.309Z,6.22
2023-05-09T03:50:46.625Z,5.75
2023-05-09T03:53:12.898Z,5.82
2023-05-09T03:55:39.167Z,5.70
2023-05-09T03:58:05.430Z,6.15
2023-05-09T04:00:31.702Z,5.80
2023-05-09T04:02:58.013Z,5.88
2023-05-09T04:05:24.342Z,5.68
2023-05-09T04:07:50.642Z,6.00
2023-05-09T04:10:16.870Z,5.88
2023-05-09T04:12:43.105Z,5.22
2023-05-09T04:15:09.423Z,5.75
2023-05-09T04:17:35.806Z,6.15
2023-05-09T04:20:02.294Z,5.93
2023-05-09T04:22:28.690Z,5.57
2023-05-09T04:24:55.409Z,5.60
2023-05-09T04:27:21.644Z,5.55
2023-05-09T04:29:47.909Z,5.38
2023-05-09T04:32:14.170Z,5.63
2023-05-09T04:34:40.437Z,5.70
2023-05-09T04:37:06.682Z,5.22
2023-05-09T04:39:33.047Z,5.25
2023-05-09T04:41:59.262Z,6.03
2023-05-09T04:44:25.520Z,5.57
2023-05-09T04:46:51.749Z,5.85
2023-05-09T04:49:17.978Z,5.55
2023-05-09T04:51:44.218Z,5.97
2023-05-09T04:54:10.440Z,5.90
2023-05-09T04:56:37.074Z,5.43
2023-05-09T04:59:03.505Z,5.40
2023-05-09T05:01:29.792Z,6.18
2023-05-09T05:03:56.049Z,5.85
2023-05-09T05:06:22.316Z,5.50
2023-05-09T05:08:48.598Z,5.43
2023-05-09T05:11:15.120Z,5.72
2023-05-09T05:13:41.367Z,4.95
2023-05-09T05:16:07.696Z,5.35
2023-05-09T05:18:33.998Z,5.60
2023-05-09T05:21:00.302Z,6.10
2023-05-09T05:23:26.807Z,5.38
2023-05-09T05:25:53.199Z,6.00
2023-05-09T05:28:19.450Z,5.53
2023-05-09T05:30:45.693Z,5.70
2023-05-09T05:33:11.945Z,5.32
2023-05-09T05:35:38.287Z,5.47
2023-05-09T05:38:04.521Z,5.85
2023-05-09T05:40:30.777Z,5.25
2023-05-09T05:42:56.989Z,5.90
2023-05-09T05:45:23.239Z,5.60
2023-05-09T05:47:49.592Z,5.30
2023-05-09T05:50:16.540Z,5.68
2023-05-09T05:52:43.023Z,5.75
2023-05-09T05:55:09.319Z,6.03
2023-05-09T05:57:35.684Z,5.57
2023-05-09T06:00:01.958Z,5.78
2023-05-09T06:02:28.828Z,6.10
2023-05-09T06:04:56.179Z,5.85
2023-05-09T06:07:22.572Z,5.82
2023-05-09T06:09:49.608Z,6.40
2023-05-09T06:12:15.849Z,6.30
2023-05-09T06:14:42.063Z,6.57
2023-05-09T06:17:08.404Z,6.57
2023-05-09T06:19:34.697Z,7.47
2023-05-09T06:22:00.937Z,7.75
2023-05-09T06:24:35.625Z,6.78
2023-05-09T06:27:02.534Z,7.10
2023-05-09T06:29:28.765Z,6.95
2023-05-09T06:31:55.072Z,6.93
2023-05-09T06:34:21.363Z,7.72
2023-05-09T06:36:47.661Z,7.55
2023-05-09T06:39:14.003Z,7.53
2023-05-09T06:41:40.254Z,6.88
2023-05-09T06:44:06.475Z,7.15
2023-05-09T06:46:32.747Z,6.40
2023-05-09T06:48:59.129Z,6.90
2023-05-09T06:51:25.358Z,6.60
2023-05-09T06:53:51.612Z,7.32
2023-05-09T06:56:19.924Z,7.85
2023-05-09T06:58:46.333Z,6.50
2023-05-09T07:01:12.577Z,6.97
2023-05-09T07:03:38.835Z,7.18
2023-05-09T07:06:05.091Z,6.45
2023-05-09T07:08:31.364Z,6.65
2023-05-09T07:10:57.597Z,7.57
2023-05-09T07:13:23.904Z,7.63
2023-05-09T07:15:50.213Z,6.88
2023-05-09T07:18:16.466Z,6.60
2023-05-09T07:20:42.809Z,7.38
2023-05-09T07:23:09.136Z,7.32
2023-05-09T07:25:35.380Z,6.22
2023-05-09T07:28:01.629Z,6.50
2023-05-09T07:30:27.907Z,6.88
2023-05-09T07:32:54.215Z,6.85
2023-05-09T07:35:20.485Z,6.72
2023-05-09T07:37:46.817Z,6.53
2023-05-09T07:40:13.446Z,6.55
2023-05-09T07:42:39.852Z,6.38
2023-05-09T07:45:06.363Z,6.32
2023-05-09T07:47:32.611Z,5.88
2023-05-09T07:49:58.867Z,5.82
2023-05-09T07:52:25.131Z,6.45
2023-05-09T07:54:51.446Z,6.35
2023-05-09T07:57:18.021Z,5.75
2023-05-09T07:59:44.357Z,6.07
2023-05-09T08:02:10.697Z,5.72
2023-05-09T08:04:37.011Z,6.18
2023-05-09T08:07:03.662Z,6.18
2023-05-09T08:09:30.004Z,5.90
2023-05-09T08:11:56.301Z,5.32
2023-05-09T08:14:22.534Z,5.53
2023-05-09T08:16:48.772Z,6.32
2023-05-09T08:19:15.045Z,5.75
2023-05-09T08:21:41.389Z,5.00
2023-05-09T08:24:07.786Z,6.13
2023-05-09T08:26:34.077Z,5.63
2023-05-09T08:29:00.305Z,5.50
2023-05-09T08:31:26.651Z,5.20
2023-05-09T08:33:52.982Z,6.05
2023-05-09T08:36:19.306Z,5.63
2023-05-09T08:38:45.537Z,5.20
2023-05-09T08:41:11.931Z,5.63
2023-05-09T08:43:38.164Z,5.32
2023-05-09T08:46:04.567Z,5.30
2023-05-09T08:48:30.877Z,5.38
2023-05-09T08:50:57.211Z,5.22
2023-05-09T08:53:23.506Z,5.38
2023-05-09T08:55:49.762Z,5.45
2023-05-09T08:58:16.003Z,4.65
2023-05-09T09:00:42.257Z,5.57
2023-05-09T09:03:08.556Z,5.10
2023-05-09T09:08:06.068Z,4.38
2023-05-09T09:10:32.323Z,4.65
2023-05-09T09:12:58.711Z,5.55
2023-05-09T09:15:25.065Z,5.13
2023-05-09T09:17:51.408Z,5.22
2023-05-09T09:20:17.765Z,5.82
2023-05-09T09:22:44.050Z,5.05
2023-05-09T09:25:10.722Z,5.72
2023-05-09T09:27:37.148Z,5.00
2023-05-09T09:30:03.371Z,5.40
2023-05-09T09:32:29.642Z,4.95
2023-05-09T09:34:55.916Z,5.28
2023-05-09T09:37:22.172Z,4.68
2023-05-09T09:39:48.384Z,5.25
2023-05-09T09:42:14.736Z,5.20
2023-05-09T09:44:41.036Z,5.10
2023-05-09T09:47:07.253Z,5.32
2023-05-09T09:49:33.519Z,5.25
2023-05-09T09:51:59.781Z,5.40
2023-05-09T09:54:26.080Z,6.00
2023-05-09T09:56:52.332Z,5.80
2023-05-09T09:59:18.564Z,5.35
2023-05-09T10:01:44.863Z,5.07
2023-05-09T10:04:11.129Z,5.43
2023-05-09T10:06:37.403Z,6.22
2023-05-09T10:09:03.658Z,5.18
2023-05-09T10:11:29.935Z,5.22
2023-05-09T10:13:56.256Z,5.32
2023-05-09T10:16:35.699Z,5.18
2023-05-09T10:19:06.430Z,5.38
2023-05-09T10:21:32.738Z,5.50
2023-05-09T10:23:59.049Z,5.25
2023-05-09T10:26:25.264Z,4.97
2023-05-09T10:28:51.514Z,5.03
2023-05-09T10:31:17.839Z,5.15
2023-05-09T10:33:44.094Z,5.40
2023-05-09T10:36:10.306Z,5.35
2023-05-09T10:38:36.586Z,5.47
2023-05-09T10:41:02.916Z,5.10
2023-05-09T10:43:29.480Z,4.90
2023-05-09T10:45:55.837Z,5.35
2023-05-09T10:48:22.110Z,5.53
2023-05-09T10:50:48.386Z,4.75
2023-05-09T10:53:14.636Z,4.63
2023-05-09T10:55:40.972Z,5.28
2023-05-09T10:58:07.244Z,5.05
2023-05-09T11:00:33.711Z,5.00
2023-05-09T11:03:00.069Z,4.75
2023-05-09T11:05:26.392Z,5.40
2023-05-09T11:07:52.650Z,5.20
2023-05-09T11:10:18.977Z,5.32
2023-05-09T11:12:45.275Z,4.72
2023-05-09T11:15:11.645Z,5.07
2023-05-09T11:17:37.998Z,5.03
2023-05-09T11:20:04.286Z,4.78
2023-05-09T11:22:30.646Z,5.05
2023-05-09T11:24:57.034Z,5.32
2023-05-09T11:27:23.286Z,4.85
2023-05-09T11:29:49.584Z,4.65
2023-05-09T11:32:15.892Z,4.95
2023-05-09T11:34:42.194Z,5.10
2023-05-09T11:37:08.424Z,4.97
2023-05-09T11:39:37.378Z,4.68
2023-05-09T11:42:03.601Z,4.68
2023-05-09T11:44:29.880Z,4.88
2023-05-09T11:46:56.142Z,4.90
2023-05-09T11:49:22.439Z,5.03
2023-05-09T11:51:48.706Z,5.07
2023-05-09T11:54:15.147Z,5.18
2023-05-09T11:56:41.562Z,5.55
2023-05-09T11:59:07.903Z,5.53
2023-05-09T12:01:34.185Z,5.15
2023-05-09T12:04:00.600Z,4.93
2023-05-09T12:06:27.268Z,5.20
2023-05-09T12:08:53.488Z,7.35
2023-05-09T12:11:19.781Z,7.95
2023-05-09T12:13:46.023Z,8.70
2023-05-09T12:16:12.285Z,11.25
2023-05-09T12:18:38.582Z,14.65
2023-05-09T12:21:04.843Z,22.67
2023-05-09T12:23:31.107Z,27.70
2023-05-09T12:25:58.559Z,32.15
2023-05-09T12:28:24.793Z,32.58
2023-05-09T12:30:51.069Z,37.67
2023-05-09T12:33:17.327Z,37.38
2023-05-09T12:35:43.666Z,39.00
2023-05-09T12:38:10.043Z,50.85
2023-05-09T12:40:36.272Z,76.35
2023-05-09T12:43:02.588Z,88.25
2023-05-09T12:45:29.118Z,80.55
2023-05-09T12:47:56.103Z,76.38
2023-05-09T12:50:22.526Z,69.28
2023-05-09T12:53:02.848Z,67.30
2023-05-09T12:55:30.784Z,66.00
2023-05-09T12:57:57.132Z,64.38
2023-05-09T13:00:23.694Z,59.70
2023-05-09T13:02:50.042Z,58.78
2023-05-09T13:05:17.250Z,58.33
2023-05-09T13:07:44.121Z,60.85
2023-05-09T13:10:11.934Z,60.53
2023-05-09T13:12:39.611Z,58.50
2023-05-09T13:15:05.860Z,59.90
2023-05-09T13:17:32.312Z,57.60
2023-05-09T13:20:00.222Z,57.58
2023-05-09T13:22:27.178Z,60.90
2023-05-09T13:24:53.549Z,58.00
2023-05-09T13:27:19.824Z,56.13
2023-05-09T13:29:46.332Z,61.08
2023-05-09T13:32:12.610Z,58.35
2023-05-09T13:34:39.012Z,58.88
2023-05-09T13:37:05.240Z,53.35
2023-05-09T13:39:31.692Z,54.78
2023-05-09T13:41:57.946Z,60.55
2023-05-09T13:44:24.177Z,63.83
2023-05-09T13:46:50.681Z,58.70
2023-05-09T13:49:16.973Z,58.03
2023-05-09T13:51:43.263Z,53.00
2023-05-09T13:54:10.454Z,51.35
2023-05-09T13:56:37.064Z,51.03
2023-05-09T13:59:03.369Z,50.38
2023-05-09T14:01:29.729Z,51.13
2023-05-09T14:03:56.204Z,51.85
2023-05-09T14:06:22.708Z,46.60
2023-05-09T14:08:49.548Z,45.30
2023-05-09T14:11:16.676Z,43.03
2023-05-09T14:13:42.914Z,42.97
2023-05-09T14:16:09.205Z,42.13
2023-05-09T14:18:35.494Z,38.80
2023-05-09T14:21:01.890Z,39.75
2023-05-09T14:23:28.128Z,37.60
2023-05-09T14:25:54.370Z,37.35
2023-05-09T14:28:21.585Z,36.05
2023-05-09T14:30:47.898Z,35.67
2023-05-09T14:33:14.217Z,34.90
2023-05-09T14:35:41.630Z,31.85
2023-05-09T14:38:08.103Z,30.05
2023-05-09T14:40:36.183Z,27.15
2023-05-09T14:43:02.922Z,26.00
2023-05-09T14:45:29.287Z,25.45
2023-05-09T14:47:55.547Z,23.75
2023-05-09T14:50:21.931Z,24.33
2023-05-09T14:52:49.876Z,22.13
2023-05-09T14:55:16.196Z,22.23
2023-05-09T14:57:42.463Z,21.55
2023-05-09T15:00:20.398Z,21.92
2023-05-09T15:02:47.899Z,21.38
2023-05-09T15:05:14.186Z,21.52
2023-05-09T15:07:40.671Z,22.58
2023-05-09T15:10:06.964Z,23.73
2023-05-09T15:12:33.231Z,23.48
2023-05-09T15:14:59.498Z,26.30
2023-05-09T15:17:25.803Z,26.55
2023-05-09T15:19:52.932Z,29.52
2023-05-09T15:22:22.124Z,29.75
2023-05-09T15:24:48.872Z,31.30
2023-05-09T15:27:15.114Z,30.10
2023-05-09T15:29:41.897Z,32.72
2023-05-09T15:32:08.442Z,32.05
2023-05-09T15:34:34.710Z,32.53
2023-05-09T15:37:00.966Z,32.35
2023-05-09T15:39:27.207Z,31.17
2023-05-09T15:41:53.536Z,30.45
2023-05-09T15:44:19.883Z,30.77
2023-05-09T15:46:46.196Z,31.95
2023-05-09T15:49:13.068Z,31.95
2023-05-09T15:51:39.330Z,30.02
2023-05-09T15:54:05.573Z,29.92
2023-05-09T15:56:32.750Z,29.88
2023-05-09T15:59:00.234Z,29.00
2023-05-09T16:01:26.593Z,27.73
2023-05-09T16:03:53.140Z,26.75
2023-05-09T16:06:19.499Z,26.50
2023-05-09T16:08:45.834Z,24.88
2023-05-09T16:11:13.497Z,25.55
2023-05-09T16:13:39.846Z,24.58
2023-05-09T16:16:06.129Z,24.58
2023-05-09T16:18:32.541Z,22.27
2023-05-09T16:20:58.801Z,20.42
2023-05-09T16:23:25.072Z,18.70
2023-05-09T16:25:51.319Z,15.73
2023-05-09T16:28:17.578Z,226.02
2023-05-09T16:30:43.884Z,279.08
2023-05-09T16:33:12.153Z,110.38
2023-05-09T16:35:38.398Z,55.63
2023-05-09T16:38:04.802Z,51.28
2023-05-09T16:40:31.553Z,36.80
2023-05-09T16:42:57.942Z,31.13
2023-05-09T16:45:24.226Z,10.55
2023-05-09T16:47:50.523Z,9.43
2023-05-09T16:50:17.772Z,8.27
2023-05-09T16:52:44.131Z,8.20
2023-05-09T16:55:10.456Z,7.22
2023-05-09T16:57:36.777Z,472.13
2023-05-09T17:00:03.825Z,385.80
2023-05-09T17:02:30.152Z,213.40
2023-05-09T17:04:57.436Z,166.52
2023-05-09T17:07:23.755Z,153.85
2023-05-09T17:09:50.031Z,139.13
2023-05-09T17:12:16.292Z,127.57
2023-05-09T17:14:42.549Z,122.28
2023-05-09T17:17:08.808Z,118.57
2023-05-09T17:19:35.184Z,108.13
2023-05-09T17:22:01.421Z,104.47
2023-05-09T17:24:27.677Z,99.30
2023-05-09T17:26:55.383Z,95.13
2023-05-09T17:32:12.302Z,85.45
2023-05-09T17:34:38.574Z,95.32
2023-05-09T17:37:04.867Z,126.05
2023-05-09T17:39:31.152Z,111.78
2023-05-09T17:41:57.505Z,96.93
2023-05-09T17:44:23.774Z,89.07
2023-05-09T17:46:50.017Z,84.70
2023-05-09T17:49:16.370Z,79.45
2023-05-09T17:51:43.240Z,73.43
2023-05-09T17:54:09.525Z,70.03
2023-05-09T17:56:35.773Z,65.75
2023-05-09T17:59:02.026Z,63.65
2023-05-09T18:01:28.401Z,71.50
2023-05-09T18:03:54.735Z,313.33
2023-05-09T18:06:21.110Z,300.83
2023-05-09T18:08:47.368Z,251.57
2023-05-09T18:11:13.665Z,213.98
2023-05-09T18:13:39.929Z,194.38
2023-05-09T18:16:06.244Z,173.18
2023-05-09T18:18:32.498Z,157.90
2023-05-09T18:20:58.813Z,155.02
2023-05-09T18:23:25.087Z,144.85
2023-05-09T18:25:52.202Z,138.23
2023-05-09T18:28:19.122Z,325.27
2023-05-09T18:30:45.471Z,457.63
2023-05-09T18:33:12.138Z,365.08
2023-05-09T18:35:38.417Z,311.33
2023-05-09T18:38:04.662Z,289.50
2023-05-09T18:40:31.468Z,262.45
2023-05-09T18:42:57.737Z,246.35
2023-05-09T18:45:23.983Z,232.27
2023-05-09T18:47:50.333Z,215.52
2023-05-09T18:50:16.827Z,198.45
2023-05-09T18:52:43.273Z,184.35
2023-05-09T18:55:09.507Z,266.80
2023-05-09T18:57:35.906Z,306.60
2023-05-09T19:00:02.191Z,294.42
2023-05-09T19:02:28.589Z,251.80
2023-05-09T19:04:54.814Z,236.27
2023-05-09T19:07:21.094Z,206.38
2023-05-09T19:09:47.338Z,193.07
2023-05-09T19:12:13.610Z,183.18
2023-05-09T19:14:40.190Z,162.85
2023-05-09T19:17:06.511Z,146.40
2023-05-09T19:19:32.842Z,135.32
2023-05-09T19:21:59.095Z,123.70
2023-05-09T19:24:25.341Z,116.07
2023-05-09T19:26:51.621Z,107.63
2023-05-09T19:29:18.009Z,103.10
2023-05-09T19:31:44.470Z,160.57
2023-05-09T19:34:10.857Z,291.92
2023-05-09T19:36:37.089Z,251.02
2023-05-09T19:39:03.862Z,224.88
2023-05-09T19:41:30.108Z,206.68
2023-05-09T19:43:56.381Z,190.95
2023-05-09T19:46:22.790Z,175.55
2023-05-09T19:48:49.420Z,160.98
2023-05-09T19:51:15.666Z,147.07
2023-05-09T19:53:41.941Z,138.13
2023-05-09T19:56:08.461Z,113.07
2023-05-09T19:58:35.960Z,198.55
2023-05-09T20:01:02.249Z,306.80
2023-05-09T20:03:28.564Z,245.38
2023-05-09T20:05:54.840Z,238.38
2023-05-09T20:08:22.398Z,225.80
2023-05-09T20:10:48.944Z,208.68
2023-05-09T20:13:15.278Z,199.52
2023-05-09T20:15:41.561Z,188.70
2023-05-09T20:18:07.821Z,174.38
2023-05-09T20:20:34.126Z,161.50
2023-05-09T20:23:00.412Z,154.82
2023-05-09T20:25:26.686Z,147.15
2023-05-09T20:27:53.128Z,136.23
2023-05-09T20:30:19.386Z,132.93
2023-05-09T20:32:45.708Z,128.68
2023-05-09T20:35:11.989Z,120.57
2023-05-09T20:37:38.326Z,110.10
2023-05-09T20:40:04.569Z,121.07
2023-05-09T20:42:30.907Z,291.10
2023-05-09T20:44:57.229Z,273.55
2023-05-09T20:47:23.568Z,241.88
2023-05-09T20:49:49.860Z,226.60
2023-05-09T20:52:16.141Z,214.52
2023-05-09T20:54:42.434Z,207.00
2023-05-09T20:57:10.149Z,186.85
2023-05-09T20:59:36.455Z,177.35
2023-05-09T21:02:02.868Z,168.15
2023-05-09T21:04:29.264Z,160.70
2023-05-09T21:06:55.496Z,150.02
2023-05-09T21:09:21.753Z,146.07
2023-05-09T21:11:48.007Z,235.50
2023-05-09T21:14:14.238Z,332.15
2023-05-09T21:16:40.601Z,301.67
2023-05-09T21:19:06.940Z,269.77
2023-05-09T21:21:33.183Z,248.73
2023-05-09T21:23:59.514Z,241.38
2023-05-09T21:26:26.063Z,232.63
2023-05-09T21:28:52.496Z,225.48
2023-05-09T21:31:18.762Z,217.45
2023-05-09T21:33:45.030Z,202.10
2023-05-09T21:36:11.352Z,196.35
2023-05-09T21:38:37.670Z,185.70
2023-05-09T21:41:03.938Z,174.48
2023-05-09T21:43:30.185Z,174.65
2023-05-09T21:45:56.452Z,303.58
2023-05-09T21:48:22.744Z,388.08
2023-05-09T21:50:49.011Z,326.33
2023-05-09T21:53:15.636Z,388.48
2023-05-09T21:55:41.870Z,457.50
2023-05-09T21:58:08.120Z,493.17
2023-05-09T22:00:34.437Z,454.70
2023-05-09T22:03:01.138Z,406.95
2023-05-09T22:05:27.925Z,400.98
2023-05-09T22:07:54.172Z,395.13
2023-05-09T22:10:20.500Z,388.52
2023-05-09T22:12:46.889Z,381.52
2023-05-09T22:15:13.253Z,378.35
2023-05-09T22:17:40.312Z,372.85
2023-05-09T22:20:06.619Z,358.65
2023-05-09T22:22:32.869Z,353.10
2023-05-09T22:24:59.152Z,354.80
2023-05-09T22:27:25.590Z,348.52
2023-05-09T22:29:51.889Z,336.77
2023-05-09T22:32:18.205Z,333.05
2023-05-09T22:34:44.451Z,329.25
2023-05-09T22:37:10.735Z,319.88
2023-05-09T22:39:37.244Z,314.10
2023-05-09T22:42:03.998Z,321.83
2023-05-09T22:44:30.314Z,303.80
2023-05-09T22:46:56.597Z,302.35
2023-05-09T22:49:22.830Z,294.67
2023-05-09T22:51:49.175Z,293.25
2023-05-09T22:54:15.420Z,288.17
2023-05-09T22:56:41.793Z,278.98
2023-05-09T22:59:08.038Z,282.98
2023-05-09T23:01:34.356Z,272.67
2023-05-09T23:04:01.058Z,270.55
2023-05-09T23:06:27.367Z,269.48
2023-05-09T23:08:54.162Z,261.77
2023-05-09T23:11:20.510Z,261.08
2023-05-09T23:13:46.917Z,259.38
2023-05-09T23:16:13.226Z,258.35
2023-05-09T23:18:39.518Z,244.95
2023-05-09T23:21:05.872Z,236.90
2023-05-09T23:23:32.160Z,236.25
2023-05-09T23:25:58.472Z,229.80
2023-05-09T23:28:24.831Z,232.13
2023-05-09T23:30:51.615Z,222.18
2023-05-09T23:33:17.911Z,218.93
2023-05-09T23:35:44.558Z,221.07
2023-05-09T23:38:12.913Z,210.75
2023-05-09T23:40:39.190Z,203.30
2023-05-09T23:43:05.480Z,207.05
2023-05-09T23:45:31.831Z,202.27
2023-05-09T23:47:58.186Z,187.88
2023-05-09T23:50:24.574Z,189.30
2023-05-09T23:52:50.821Z,189.80
2023-05-09T23:55:17.116Z,178.38
2023-05-09T23:57:45.208Z,179.02
